首页
METAR-TAF:

METAR-TAF

机场 :

中部國際機場

名古屋, 日本

纬度: 34-51-30N, 经度: 136-48-19E, 海拔: 5米

当前天气观测

该预报发布于34分钟前的15:00 UTC
风速21节,风向北转西北
温度 13°C
湿度 62%
气压 1017 hPa
能见度10公里或以上
少量云层高于3000英尺
多云层高于5000英尺

METAR: RJGG 081500Z 33021KT 9999 FEW030 BKN050 13/06 Q1017 NOSIG

时间: 00:34 (15:34 UTC)

预报

该预报发布于4小时和29分钟前的11:05 UTC
预报有效从08日的 12点(UTC)到 09日的 18点(UTC)
风速20节,风向西北
能见度10公里或以上
少量云层高于3000英尺

TAF: RJGG 081105Z 0812/0918 32020KT 9999 FEW030

超过4000个机场的气象观测和天气预报(METAR&TAF报告)。

可查询的气象台以黄色和红色小点在地图上表示。

将鼠标移到小点上方,可查看气象台名称。

然后点击查看天气观测和预报。

如需切换地图:点击带黑十字的绿色按钮放大地图;点击带横线的绿色按钮缩小地图;或者点击绿色箭头查看邻近地区的地图。


METAR-TAF: